createdAt,value
2022-12-03T00:00:13.205Z,41.90
2022-12-03T00:02:41.501Z,41.30
2022-12-03T00:05:10.152Z,40.90
2022-12-03T00:07:37.991Z,42.13
2022-12-03T00:10:07.441Z,42.57
2022-12-03T00:12:35.177Z,41.47
2022-12-03T00:15:04.770Z,40.33
2022-12-03T00:17:32.451Z,42.13
2022-12-03T00:20:00.217Z,41.20
2022-12-03T00:22:27.893Z,38.87
2022-12-03T00:24:55.855Z,40.57
2022-12-03T00:27:23.735Z,43.27
2022-12-03T00:29:51.454Z,43.97
2022-12-03T00:32:20.492Z,43.10
2022-12-03T00:34:49.543Z,38.30
2022-12-03T00:37:17.665Z,41.10
2022-12-03T00:39:45.392Z,44.70
2022-12-03T00:42:13.076Z,41.73
2022-12-03T00:44:40.770Z,42.50
2022-12-03T00:47:09.619Z,41.20
2022-12-03T00:49:38.710Z,41.03
2022-12-03T00:52:06.401Z,42.50
2022-12-03T00:54:34.468Z,41.47
2022-12-03T00:57:02.155Z,42.90
2022-12-03T00:59:29.819Z,38.60
2022-12-03T01:01:57.745Z,43.30
2022-12-03T01:04:25.533Z,41.70
2022-12-03T01:06:54.685Z,43.37
2022-12-03T01:09:22.437Z,43.13
2022-12-03T01:11:50.270Z,45.97
2022-12-03T01:14:20.194Z,43.87
2022-12-03T01:16:50.635Z,41.43
2022-12-03T01:19:19.448Z,49.20
2022-12-03T01:21:49.615Z,43.40
2022-12-03T01:24:19.383Z,44.50
2022-12-03T01:26:47.235Z,41.17
2022-12-03T01:29:15.467Z,43.17
2022-12-03T01:32:00.592Z,41.87
2022-12-03T01:34:28.659Z,42.10
2022-12-03T01:36:56.334Z,42.70
2022-12-03T01:39:31.272Z,42.27
2022-12-03T01:41:59.805Z,45.63
2022-12-03T01:44:29.644Z,43.70
2022-12-03T01:46:59.428Z,42.03
2022-12-03T01:49:29.970Z,45.87
2022-12-03T01:51:59.067Z,38.93
2022-12-03T01:54:32.067Z,43.47
2022-12-03T01:57:00.050Z,44.23
2022-12-03T01:59:35.419Z,40.43
2022-12-03T02:02:12.633Z,46.10
2022-12-03T02:04:40.647Z,44.27
2022-12-03T02:07:22.623Z,39.80
2022-12-03T02:09:51.876Z,40.53
2022-12-03T02:12:23.746Z,40.47
2022-12-03T02:14:57.267Z,40.20
2022-12-03T02:17:35.305Z,40.90
2022-12-03T02:20:05.302Z,40.70
2022-12-03T02:22:40.997Z,41.37
2022-12-03T02:25:19.333Z,40.90
2022-12-03T02:27:48.937Z,41.67
2022-12-03T02:30:21.190Z,40.27
2022-12-03T02:32:50.020Z,40.40
2022-12-03T02:35:20.621Z,41.37
2022-12-03T02:37:51.832Z,37.70
2022-12-03T02:40:23.801Z,42.67
2022-12-03T02:42:55.501Z,42.07
2022-12-03T02:45:26.509Z,39.57
2022-12-03T02:47:58.162Z,42.83
2022-12-03T02:50:29.505Z,39.23
2022-12-03T02:53:00.936Z,36.90
2022-12-03T02:55:36.567Z,39.13
2022-12-03T02:58:06.005Z,42.00
2022-12-03T03:00:34.445Z,40.57
2022-12-03T03:03:04.123Z,39.80
2022-12-03T03:05:32.844Z,37.63
2022-12-03T03:08:16.326Z,41.47
2022-12-03T03:10:46.935Z,36.93
2022-12-03T03:13:17.850Z,39.87
2022-12-03T03:15:46.278Z,39.43
2022-12-03T03:18:14.953Z,40.43
2022-12-03T03:20:43.691Z,43.00
2022-12-03T03:23:16.989Z,40.87
2022-12-03T03:25:48.727Z,43.63
2022-12-03T03:28:17.555Z,41.47
2022-12-03T03:30:45.425Z,36.73
2022-12-03T03:33:14.332Z,40.70
2022-12-03T03:35:42.735Z,41.77
2022-12-03T03:38:11.563Z,40.70
2022-12-03T03:40:40.259Z,40.37
2022-12-03T03:43:09.445Z,40.87
2022-12-03T03:45:37.253Z,42.67
2022-12-03T03:48:05.289Z,44.00
2022-12-03T03:50:33.747Z,41.00
2022-12-03T03:53:03.572Z,42.20
2022-12-03T03:55:31.908Z,42.93
2022-12-03T03:57:59.977Z,41.77
2022-12-03T04:00:29.231Z,48.07
2022-12-03T04:02:56.930Z,42.23
2022-12-03T04:05:25.713Z,42.80
2022-12-03T04:07:53.471Z,39.40
2022-12-03T04:10:38.761Z,44.13
2022-12-03T04:13:14.106Z,41.90
2022-12-03T04:15:43.105Z,40.87
2022-12-03T04:18:28.616Z,41.73
2022-12-03T04:21:16.837Z,44.53
2022-12-03T04:23:43.619Z,40.23
2022-12-03T04:26:28.607Z,40.00
2022-12-03T04:28:56.618Z,40.80
2022-12-03T04:31:43.503Z,44.37
2022-12-03T04:34:28.856Z,46.13
2022-12-03T04:36:56.966Z,43.63
2022-12-03T04:39:27.062Z,43.47
2022-12-03T04:41:54.791Z,43.40
2022-12-03T04:44:36.060Z,41.60
2022-12-03T04:47:08.896Z,43.60
2022-12-03T04:49:38.187Z,47.70
2022-12-03T04:52:06.426Z,40.00
2022-12-03T04:54:34.444Z,41.67
2022-12-03T04:57:02.442Z,39.67
2022-12-03T04:59:30.325Z,41.13
2022-12-03T05:01:57.962Z,41.80
2022-12-03T05:04:27.386Z,41.40
2022-12-03T05:06:55.406Z,39.97
2022-12-03T05:09:23.057Z,42.20
2022-12-03T05:11:50.728Z,45.07
2022-12-03T05:14:18.390Z,43.43
2022-12-03T05:16:46.112Z,41.80
2022-12-03T05:19:13.767Z,41.40
2022-12-03T05:21:41.871Z,42.53
2022-12-03T05:24:09.634Z,42.07
2022-12-03T05:26:37.261Z,40.80
2022-12-03T05:29:05.088Z,42.40
2022-12-03T05:31:32.789Z,39.50
2022-12-03T05:34:00.418Z,39.33
2022-12-03T05:36:28.116Z,40.07
2022-12-03T05:38:57.171Z,42.23
2022-12-03T05:41:42.476Z,38.70
2022-12-03T05:44:10.134Z,42.57
2022-12-03T05:46:37.875Z,38.87
2022-12-03T05:49:05.628Z,38.10
2022-12-03T05:51:33.306Z,38.63
2022-12-03T05:54:02.252Z,39.67
2022-12-03T05:56:29.925Z,42.40
2022-12-03T05:58:57.533Z,36.93
2022-12-03T06:01:25.414Z,39.67
2022-12-03T06:03:54.896Z,41.97
2022-12-03T06:06:22.622Z,40.83
2022-12-03T06:08:50.349Z,40.73
2022-12-03T06:11:19.389Z,39.00
2022-12-03T06:13:47.049Z,38.47
2022-12-03T06:16:14.811Z,39.63
2022-12-03T06:18:42.500Z,37.67
2022-12-03T06:21:10.180Z,37.20
2022-12-03T06:23:44.438Z,36.57
2022-12-03T06:26:12.124Z,36.60
2022-12-03T06:28:45.545Z,40.23
2022-12-03T06:31:13.693Z,40.20
2022-12-03T06:33:41.393Z,39.73
2022-12-03T06:36:10.153Z,42.90
2022-12-03T06:38:37.783Z,43.53
2022-12-03T06:41:05.611Z,40.10
2022-12-03T06:43:33.252Z,36.73
2022-12-03T06:46:02.305Z,39.87
2022-12-03T06:48:30.022Z,35.13
2022-12-03T06:50:57.676Z,36.33
2022-12-03T06:53:27.410Z,41.77
2022-12-03T06:55:55.104Z,35.33
2022-12-03T06:58:26.323Z,39.30
2022-12-03T07:01:09.519Z,37.77
2022-12-03T07:03:38.634Z,36.10
2022-12-03T07:06:06.694Z,41.30
2022-12-03T07:08:34.366Z,36.53
2022-12-03T07:11:02.164Z,39.10
2022-12-03T07:13:29.868Z,37.67
2022-12-03T07:15:57.510Z,36.27
2022-12-03T07:18:25.227Z,40.17
2022-12-03T07:20:54.210Z,37.27
2022-12-03T07:23:21.888Z,36.70
2022-12-03T07:25:49.526Z,35.13
2022-12-03T07:28:17.130Z,37.03
2022-12-03T07:30:44.776Z,38.10
2022-12-03T07:33:12.398Z,37.93
2022-12-03T07:35:40.191Z,41.03
2022-12-03T07:38:09.162Z,34.97
2022-12-03T07:40:36.811Z,36.37
2022-12-03T07:43:04.487Z,35.63
2022-12-03T07:45:32.173Z,36.43
2022-12-03T07:47:59.831Z,32.33
2022-12-03T07:50:28.369Z,38.77
2022-12-03T07:52:56.150Z,35.57
2022-12-03T07:55:25.975Z,33.80
2022-12-03T07:57:53.611Z,36.70
2022-12-03T08:00:22.408Z,33.87
2022-12-03T08:02:50.147Z,39.27
2022-12-03T08:05:18.046Z,35.43
2022-12-03T08:07:45.850Z,34.40
2022-12-03T08:10:13.614Z,34.77
2022-12-03T08:12:42.593Z,36.97
2022-12-03T08:15:13.173Z,42.37
2022-12-03T08:17:42.331Z,35.50
2022-12-03T08:20:15.657Z,38.50
2022-12-03T08:22:43.914Z,36.40
2022-12-03T08:25:18.169Z,34.83
2022-12-03T08:27:47.158Z,38.50
2022-12-03T08:30:16.532Z,37.90
2022-12-03T08:32:44.594Z,38.00
2022-12-03T08:35:14.402Z,36.37
2022-12-03T08:37:42.506Z,39.70
2022-12-03T08:40:23.133Z,36.10
2022-12-03T08:42:52.168Z,36.33
2022-12-03T08:45:41.760Z,36.33
2022-12-03T08:48:47.012Z,37.40
2022-12-03T08:51:22.104Z,37.43
2022-12-03T08:53:54.267Z,40.10
2022-12-03T08:56:28.160Z,37.67
2022-12-03T08:58:59.544Z,37.90
2022-12-03T09:01:33.381Z,36.43
2022-12-03T09:04:24.884Z,37.33
2022-12-03T09:06:53.575Z,33.97
2022-12-03T09:09:22.006Z,34.47
2022-12-03T09:11:50.135Z,35.17
2022-12-03T09:14:21.161Z,37.70
2022-12-03T09:16:49.231Z,33.47
2022-12-03T09:19:17.159Z,37.13
2022-12-03T09:21:44.794Z,36.27
2022-12-03T09:24:12.432Z,34.53
2022-12-03T09:26:40.075Z,35.90
2022-12-03T09:29:12.113Z,38.17
2022-12-03T09:31:41.975Z,36.17
2022-12-03T09:34:10.163Z,35.33
2022-12-03T09:36:37.827Z,33.90
2022-12-03T09:39:06.019Z,35.27
2022-12-03T09:41:33.633Z,36.23
2022-12-03T09:44:04.958Z,37.43
2022-12-03T09:46:34.835Z,35.03
2022-12-03T09:49:04.909Z,35.37
2022-12-03T09:51:35.689Z,38.00
2022-12-03T09:54:05.964Z,34.63
2022-12-03T09:56:37.137Z,37.07
2022-12-03T09:59:07.831Z,37.50
2022-12-03T10:01:36.044Z,35.77
2022-12-03T10:04:05.284Z,38.63
2022-12-03T10:06:32.958Z,33.43
2022-12-03T10:09:00.962Z,35.50
2022-12-03T10:11:30.999Z,36.20
2022-12-03T10:13:59.862Z,40.97
2022-12-03T10:16:30.453Z,34.10
2022-12-03T10:19:00.514Z,33.67
2022-12-03T10:21:32.989Z,34.10
2022-12-03T10:24:25.663Z,34.53
2022-12-03T10:26:55.690Z,34.50
2022-12-03T10:29:33.193Z,31.53
2022-12-03T10:32:03.331Z,34.77
2022-12-03T10:34:33.416Z,33.70
2022-12-03T10:37:15.354Z,30.93
2022-12-03T10:39:57.889Z,30.43
2022-12-03T10:42:26.506Z,33.03
2022-12-03T10:45:19.461Z,31.87
2022-12-03T10:48:07.356Z,32.07
2022-12-03T10:50:39.990Z,32.33
2022-12-03T10:53:10.941Z,30.70
2022-12-03T10:55:41.801Z,30.60
2022-12-03T10:58:20.618Z,30.83
2022-12-03T11:00:48.539Z,34.20
2022-12-03T11:03:21.645Z,30.60
2022-12-03T11:05:50.164Z,30.10
2022-12-03T11:08:24.093Z,29.57
2022-12-03T11:10:59.732Z,29.57
2022-12-03T11:13:45.514Z,30.77
2022-12-03T11:16:14.283Z,27.63
2022-12-03T11:19:04.086Z,26.50
2022-12-03T11:21:32.829Z,29.57
2022-12-03T11:24:19.580Z,27.50
2022-12-03T11:27:18.424Z,28.47
2022-12-03T11:30:03.835Z,30.10
2022-12-03T11:33:04.921Z,29.07
2022-12-03T11:35:51.653Z,34.30
2022-12-03T11:38:53.561Z,30.83
2022-12-03T11:41:25.510Z,29.13
2022-12-03T11:44:21.947Z,27.53
2022-12-03T11:46:50.229Z,32.47
2022-12-03T11:49:29.533Z,25.77
2022-12-03T11:51:58.079Z,29.27
2022-12-03T11:54:25.954Z,27.90
2022-12-03T11:56:56.309Z,27.77
2022-12-03T11:59:24.124Z,37.43
2022-12-03T12:01:51.863Z,27.47
2022-12-03T12:04:32.049Z,26.90
2022-12-03T12:06:59.977Z,27.20
2022-12-03T12:09:50.573Z,24.63
2022-12-03T12:12:30.353Z,24.10
2022-12-03T12:14:58.749Z,23.83
2022-12-03T12:17:34.308Z,25.80
2022-12-03T12:20:25.813Z,26.10
2022-12-03T12:22:54.653Z,26.73
2022-12-03T12:25:42.040Z,24.20
2022-12-03T12:28:11.075Z,24.70
2022-12-03T12:30:40.126Z,24.93
2022-12-03T12:33:23.049Z,27.87
2022-12-03T12:35:50.804Z,22.20
2022-12-03T12:38:19.958Z,26.10
2022-12-03T12:40:50.164Z,23.00
2022-12-03T12:43:26.214Z,22.40
2022-12-03T12:45:55.866Z,23.13
2022-12-03T12:48:28.741Z,26.43
2022-12-03T12:51:07.530Z,23.83
2022-12-03T12:53:36.392Z,25.43
2022-12-03T12:56:16.810Z,22.13
2022-12-03T12:58:45.911Z,20.87
2022-12-03T13:01:20.937Z,22.40
2022-12-03T13:03:51.537Z,23.73
2022-12-03T13:06:26.624Z,21.90
2022-12-03T13:08:54.701Z,19.13
2022-12-03T13:11:36.986Z,18.43
2022-12-03T13:14:14.157Z,20.70
2022-12-03T13:16:41.839Z,18.27
2022-12-03T13:19:20.533Z,17.80
2022-12-03T13:21:48.251Z,16.80
2022-12-03T13:24:32.318Z,14.63
2022-12-03T13:27:01.669Z,19.10
2022-12-03T13:29:32.927Z,18.00
2022-12-03T13:32:07.754Z,17.17
2022-12-03T13:34:36.092Z,19.10
2022-12-03T13:37:09.840Z,15.47
2022-12-03T13:39:39.537Z,17.77
2022-12-03T13:42:37.714Z,18.10
2022-12-03T13:45:33.150Z,18.33
2022-12-03T13:48:03.766Z,17.37
2022-12-03T13:50:35.457Z,17.50
2022-12-03T13:53:04.280Z,18.33
2022-12-03T13:55:32.555Z,20.73
2022-12-03T13:58:00.194Z,15.50
2022-12-03T14:00:29.171Z,17.20
2022-12-03T14:02:56.763Z,18.60
2022-12-03T14:05:24.492Z,17.90
2022-12-03T14:07:52.136Z,12.10
2022-12-03T14:10:19.863Z,13.03
2022-12-03T14:12:47.464Z,14.93
2022-12-03T14:15:15.094Z,17.93
2022-12-03T14:17:44.079Z,20.57
2022-12-03T14:20:12.836Z,19.37
2022-12-03T14:22:40.446Z,20.90
2022-12-03T14:25:09.197Z,22.97
2022-12-03T14:27:37.015Z,18.37
2022-12-03T14:30:06.072Z,21.43
2022-12-03T14:32:33.684Z,18.93
2022-12-03T14:35:08.165Z,23.17
2022-12-03T14:37:37.583Z,23.20
2022-12-03T14:40:08.765Z,18.13
2022-12-03T14:42:36.451Z,19.30
2022-12-03T14:45:04.482Z,16.57
2022-12-03T14:47:32.141Z,15.13
2022-12-03T14:49:59.767Z,18.87
2022-12-03T14:52:28.737Z,18.43
2022-12-03T14:54:56.366Z,16.40
2022-12-03T14:57:23.989Z,14.87
2022-12-03T14:59:51.693Z,18.00
2022-12-03T15:02:19.468Z,16.07
2022-12-03T15:04:47.120Z,16.50
2022-12-03T15:07:14.730Z,13.40
2022-12-03T15:09:43.785Z,12.70
2022-12-03T15:12:11.412Z,15.47
2022-12-03T15:14:39.106Z,17.60
2022-12-03T15:17:06.788Z,16.00
2022-12-03T15:19:34.681Z,16.73
2022-12-03T15:22:02.432Z,16.53
2022-12-03T15:24:30.024Z,17.63
2022-12-03T15:26:59.038Z,16.40
2022-12-03T15:29:26.948Z,16.17
2022-12-03T15:31:54.784Z,18.47
2022-12-03T15:34:23.406Z,15.63
2022-12-03T15:36:51.381Z,16.40
2022-12-03T15:39:19.148Z,16.70
2022-12-03T15:41:46.809Z,15.83
2022-12-03T15:44:15.835Z,16.57
2022-12-03T15:46:43.606Z,14.93
2022-12-03T15:49:11.438Z,16.07
2022-12-03T15:51:39.175Z,17.73
2022-12-03T15:54:07.243Z,17.50
2022-12-03T15:56:37.620Z,14.83
2022-12-03T15:59:05.466Z,14.80
2022-12-03T16:01:34.523Z,17.77
2022-12-03T16:04:02.286Z,16.03
2022-12-03T16:06:29.984Z,14.53
2022-12-03T16:08:57.591Z,18.13
2022-12-03T16:11:25.310Z,16.50
2022-12-03T16:13:53.070Z,13.50
2022-12-03T16:16:20.759Z,16.27
2022-12-03T16:18:49.889Z,17.57
2022-12-03T16:21:19.757Z,17.43
2022-12-03T16:23:51.158Z,13.90
2022-12-03T16:26:18.804Z,18.50
2022-12-03T16:28:46.438Z,17.70
2022-12-03T16:31:14.273Z,17.43
2022-12-03T16:33:41.947Z,17.73
2022-12-03T16:36:11.293Z,18.00
2022-12-03T16:38:51.538Z,18.87
2022-12-03T16:41:19.706Z,17.27
2022-12-03T16:43:48.463Z,17.07
2022-12-03T16:46:26.148Z,20.03
2022-12-03T16:48:55.299Z,17.37
2022-12-03T16:51:24.825Z,17.70
2022-12-03T16:53:53.252Z,20.17
2022-12-03T16:56:21.228Z,17.57
2022-12-03T16:58:48.933Z,18.47
2022-12-03T17:01:16.765Z,21.67
2022-12-03T17:03:44.523Z,20.70
2022-12-03T17:06:12.228Z,21.63
2022-12-03T17:08:47.393Z,19.50
2022-12-03T17:11:17.040Z,17.57
2022-12-03T17:13:44.977Z,17.10
2022-12-03T17:16:12.643Z,16.47
2022-12-03T17:18:40.407Z,18.23
2022-12-03T17:21:08.084Z,18.70
2022-12-03T17:23:35.773Z,16.83
2022-12-03T17:26:04.847Z,19.83
2022-12-03T17:28:32.526Z,18.30
2022-12-03T17:31:00.385Z,18.00
2022-12-03T17:33:28.090Z,15.27
2022-12-03T17:35:55.771Z,17.27
2022-12-03T17:38:23.363Z,18.17
2022-12-03T17:41:08.094Z,18.80
2022-12-03T17:43:35.808Z,21.77
2022-12-03T17:46:05.084Z,16.87
2022-12-03T17:48:32.864Z,18.17
2022-12-03T17:51:01.492Z,18.70
2022-12-03T17:53:29.612Z,16.47
2022-12-03T17:55:57.262Z,16.30
2022-12-03T17:58:26.717Z,16.60
2022-12-03T18:00:58.705Z,19.00
2022-12-03T18:03:29.965Z,16.90
2022-12-03T18:05:57.803Z,16.20
2022-12-03T18:08:25.482Z,14.83
2022-12-03T18:10:53.156Z,15.17
2022-12-03T18:13:20.882Z,14.10
2022-12-03T18:15:49.909Z,18.63
2022-12-03T18:18:17.814Z,17.17
2022-12-03T18:20:45.572Z,18.63
2022-12-03T18:23:13.547Z,17.60
2022-12-03T18:25:42.039Z,16.00
2022-12-03T18:28:09.717Z,17.03
2022-12-03T18:30:37.575Z,17.93
2022-12-03T18:33:06.803Z,14.33
2022-12-03T18:35:34.630Z,17.03
2022-12-03T18:38:02.520Z,15.40
2022-12-03T18:40:30.285Z,17.63
2022-12-03T18:42:57.937Z,16.97
2022-12-03T18:45:25.682Z,17.27
2022-12-03T18:47:53.501Z,19.07
2022-12-03T18:50:22.635Z,18.47
2022-12-03T18:52:50.255Z,16.17
2022-12-03T18:55:19.566Z,18.33
2022-12-03T18:57:47.304Z,18.30
2022-12-03T19:00:15.961Z,16.83
2022-12-03T19:03:02.479Z,18.27
2022-12-03T19:05:32.717Z,17.00
2022-12-03T19:08:00.806Z,16.57
2022-12-03T19:10:28.642Z,17.20
2022-12-03T19:12:56.345Z,17.60
2022-12-03T19:15:24.245Z,16.50
2022-12-03T19:17:51.964Z,16.00
2022-12-03T19:20:19.695Z,18.13
2022-12-03T19:22:48.809Z,16.13
2022-12-03T19:25:16.470Z,13.37
2022-12-03T19:27:44.411Z,15.20
2022-12-03T19:30:12.997Z,16.77
2022-12-03T19:32:40.795Z,14.47
2022-12-03T19:35:11.168Z,15.30
2022-12-03T19:37:39.170Z,13.97
2022-12-03T19:40:10.544Z,15.00
2022-12-03T19:42:38.346Z,11.87
2022-12-03T19:45:07.284Z,16.03
2022-12-03T19:47:35.344Z,16.53
2022-12-03T19:50:03.459Z,24.40
2022-12-03T19:52:31.137Z,77.57
2022-12-03T19:54:58.851Z,17.83
2022-12-03T19:57:28.286Z,14.87
2022-12-03T19:59:56.281Z,17.20
2022-12-03T20:02:24.087Z,16.63
2022-12-03T20:04:52.048Z,17.57
2022-12-03T20:07:19.752Z,18.67
2022-12-03T20:09:47.480Z,22.20
2022-12-03T20:12:15.160Z,33.80
2022-12-03T20:14:45.195Z,15.70
2022-12-03T20:17:36.780Z,19.00
2022-12-03T20:20:06.026Z,18.17
2022-12-03T20:22:33.743Z,18.17
2022-12-03T20:25:03.688Z,20.13
2022-12-03T20:27:32.140Z,17.87
2022-12-03T20:30:01.161Z,16.27
2022-12-03T20:32:28.875Z,17.50
2022-12-03T20:34:56.570Z,16.40
2022-12-03T20:37:24.318Z,17.47
2022-12-03T20:39:52.269Z,18.80
2022-12-03T20:42:20.321Z,21.20
2022-12-03T20:44:48.139Z,20.23
2022-12-03T20:47:17.633Z,25.87
2022-12-03T20:49:45.526Z,20.33
2022-12-03T20:52:13.383Z,16.73
2022-12-03T20:54:41.099Z,42.77
2022-12-03T20:57:08.854Z,18.43
2022-12-03T20:59:37.655Z,20.07
2022-12-03T21:02:05.673Z,20.47
2022-12-03T21:04:37.539Z,19.30
2022-12-03T21:07:05.639Z,19.03
2022-12-03T21:09:33.571Z,20.03
2022-12-03T21:12:01.349Z,19.03
2022-12-03T21:14:29.179Z,17.30
2022-12-03T21:17:08.384Z,19.40
2022-12-03T21:19:38.465Z,24.70
2022-12-03T21:22:06.778Z,17.80
2022-12-03T21:24:35.447Z,18.47
2022-12-03T21:27:03.310Z,18.10
2022-12-03T21:29:31.329Z,17.30
2022-12-03T21:31:59.375Z,16.97
2022-12-03T21:34:31.321Z,21.67
2022-12-03T21:37:06.150Z,19.40
2022-12-03T21:39:33.900Z,18.50
2022-12-03T21:42:34.190Z,17.00
2022-12-03T21:44:49.487Z,22.10
2022-12-03T21:47:17.391Z,19.90
2022-12-03T21:50:06.053Z,21.20
2022-12-03T21:52:36.616Z,23.80
2022-12-03T21:55:04.753Z,20.57
2022-12-03T21:57:32.735Z,21.20
2022-12-03T22:00:00.673Z,18.87
2022-12-03T22:02:28.967Z,17.23
2022-12-03T22:04:56.735Z,17.40
2022-12-03T22:07:24.487Z,18.37
2022-12-03T22:09:53.929Z,18.80
2022-12-03T22:12:21.874Z,18.53
2022-12-03T22:14:49.662Z,18.47
2022-12-03T22:17:17.409Z,16.90
2022-12-03T22:19:45.303Z,15.03
2022-12-03T22:22:13.022Z,19.83
2022-12-03T22:24:40.813Z,15.97
2022-12-03T22:27:10.060Z,14.00
2022-12-03T22:29:37.886Z,13.13
2022-12-03T22:32:05.920Z,15.17
2022-12-03T22:34:34.582Z,16.57
2022-12-03T22:37:02.387Z,15.70
2022-12-03T22:39:30.137Z,16.67
2022-12-03T22:41:57.988Z,15.57
2022-12-03T22:44:27.067Z,15.90
2022-12-03T22:46:54.969Z,14.07
2022-12-03T22:49:23.771Z,17.87
2022-12-03T22:51:51.413Z,15.13
2022-12-03T22:54:23.679Z,16.20
2022-12-03T22:56:52.017Z,18.47
2022-12-03T22:59:19.745Z,14.53
2022-12-03T23:01:48.754Z,66.13
2022-12-03T23:04:16.652Z,19.50
2022-12-03T23:06:44.574Z,17.37
2022-12-03T23:09:12.338Z,15.40
2022-12-03T23:11:40.100Z,17.00
2022-12-03T23:14:07.770Z,12.90
2022-12-03T23:16:35.675Z,14.03
2022-12-03T23:19:05.022Z,14.53
2022-12-03T23:21:35.156Z,16.10
2022-12-03T23:24:04.948Z,16.40
2022-12-03T23:26:35.604Z,15.47
2022-12-03T23:29:03.338Z,17.53
2022-12-03T23:31:32.652Z,15.23
2022-12-03T23:34:01.687Z,15.97
2022-12-03T23:36:33.189Z,15.10
2022-12-03T23:39:03.751Z,14.23
2022-12-03T23:41:31.492Z,39.23
2022-12-03T23:43:59.187Z,20.60
2022-12-03T23:46:28.380Z,20.47
2022-12-03T23:48:58.426Z,15.03
2022-12-03T23:51:27.210Z,15.23
2022-12-03T23:53:57.582Z,18.00
2022-12-03T23:56:27.227Z,28.10
2022-12-03T23:58:55.099Z,18.83
